Time;durP1;ratioP1;P1;durP2;ratioP2;P2;SDS_P1;SDS_P2;PMS_P1;PMS_P2;Temp;Humidity;BMP_temperature;BMP_pressure;BME280_temperature;BME280_humidity;BME280_pressure;Samples;Min_cycle;Max_cycle;Signal;HPM_P1;HPM_P2
2023/03/31 00:00:59;;;;;;;15.17;3.97;;;11.60;99.90;;;;;;5089288;28;20234;-57
2023/03/31 00:03:28;;;;;;;16.20;3.40;;;11.60;99.90;;;;;;5089842;28;20637;-58
2023/03/31 00:05:57;;;;;;;14.00;3.23;;;11.60;99.90;;;;;;5093277;28;20302;-58
2023/03/31 00:08:28;;;;;;;17.30;3.90;;;11.60;99.90;;;;;;5091642;28;20227;-57
2023/03/31 00:11:00;;;;;;;20.73;4.03;;;11.60;99.90;;;;;;5091677;28;20310;-57
2023/03/31 00:13:29;;;;;;;13.73;3.17;;;11.60;99.90;;;;;;5086795;28;20214;-57
2023/03/31 00:15:58;;;;;;;22.23;3.57;;;11.60;99.90;;;;;;5093478;28;20234;-57
2023/03/31 00:18:28;;;;;;;17.03;3.90;;;11.60;99.90;;;;;;5071531;28;20220;-57
2023/03/31 00:21:07;;;;;;;17.77;3.80;;;11.50;99.90;;;;;;5071840;28;20216;-59
2023/03/31 00:23:35;;;;;;;19.30;3.20;;;11.50;99.90;;;;;;5074424;28;20288;-58
2023/03/31 00:26:05;;;;;;;18.20;3.70;;;11.50;99.90;;;;;;5069048;28;20670;-58
2023/03/31 00:28:34;;;;;;;14.00;3.30;;;11.50;99.90;;;;;;5078076;28;20192;-57
2023/03/31 00:31:03;;;;;;;18.80;3.97;;;11.40;99.90;;;;;;5077514;28;20192;-58
2023/03/31 00:33:31;;;;;;;16.57;3.87;;;11.40;99.90;;;;;;5074440;28;20333;-58
2023/03/31 00:36:00;;;;;;;22.67;4.20;;;11.40;99.90;;;;;;5079094;28;20262;-58
2023/03/31 00:38:29;;;;;;;13.37;3.43;;;11.30;99.90;;;;;;5068092;28;20705;-58
2023/03/31 00:40:58;;;;;;;22.87;3.63;;;11.30;99.90;;;;;;5071517;28;20255;-58
2023/03/31 00:43:31;;;;;;;17.13;3.67;;;11.20;99.90;;;;;;5068810;28;20208;-58
2023/03/31 00:46:12;;;;;;;13.83;2.73;;;11.10;99.90;;;;;;5073387;28;20212;-58
2023/03/31 00:48:47;;;;;;;15.00;3.17;;;11.10;99.90;;;;;;5067016;28;20724;-57
2023/03/31 00:51:15;;;;;;;20.67;4.03;;;11.10;99.90;;;;;;5070125;28;20603;-58
2023/03/31 00:53:46;;;;;;;14.67;3.53;;;11.10;99.90;;;;;;5068241;28;20227;-58
2023/03/31 00:56:16;;;;;;;18.10;3.63;;;11.00;99.90;;;;;;5057886;28;20273;-58
2023/03/31 00:58:48;;;;;;;11.33;3.73;;;11.00;99.90;;;;;;5067061;28;20189;-57
2023/03/31 01:01:20;;;;;;;13.03;3.37;;;10.90;99.90;;;;;;5069343;28;20192;-58
2023/03/31 01:03:49;;;;;;;17.10;3.50;;;10.80;99.90;;;;;;5074168;28;20282;-58
2023/03/31 01:06:18;;;;;;;16.10;3.27;;;10.80;99.90;;;;;;5063907;28;20312;-58
2023/03/31 01:08:50;;;;;;;12.43;3.67;;;10.80;99.90;;;;;;5069066;28;20247;-58
2023/03/31 01:11:22;;;;;;;18.90;3.27;;;10.80;99.90;;;;;;5065249;28;20908;-57
2023/03/31 01:13:54;;;;;;;13.27;3.73;;;10.80;99.90;;;;;;5070848;28;20394;-58
2023/03/31 01:16:23;;;;;;;18.73;3.27;;;10.70;99.90;;;;;;5070241;28;20682;-58
2023/03/31 01:18:52;;;;;;;22.67;3.73;;;10.70;99.90;;;;;;5065553;28;20318;-57
2023/03/31 01:22:02;;;;;;;13.43;3.70;;;10.70;99.90;;;;;;5069384;28;20211;-57
2023/03/31 01:25:12;;;;;;;24.53;4.27;;;10.70;99.90;;;;;;5068342;28;20273;-57
2023/03/31 01:27:55;;;;;;;22.50;4.03;;;10.70;99.90;;;;;;5068356;28;20215;-58
2023/03/31 01:30:52;;;;;;;19.83;3.73;;;10.80;99.90;;;;;;5071801;28;20532;-58
2023/03/31 01:33:49;;;;;;;16.60;3.47;;;10.80;99.90;;;;;;5067230;28;20215;-58
2023/03/31 01:36:56;;;;;;;16.53;3.80;;;10.80;99.90;;;;;;5070141;28;20277;-58
2023/03/31 01:39:59;;;;;;;15.90;3.57;;;10.80;99.90;;;;;;5062363;28;20219;-58
2023/03/31 01:42:34;;;;;;;20.60;3.80;;;10.80;99.90;;;;;;5065787;28;20894;-58
2023/03/31 01:45:12;;;;;;;20.23;3.33;;;10.70;99.90;;;;;;5072359;28;20247;-57
2023/03/31 01:47:49;;;;;;;10.17;2.83;;;10.70;99.90;;;;;;5069641;28;20227;-58
2023/03/31 01:50:23;;;;;;;13.43;3.43;;;10.70;99.90;;;;;;5069877;28;20215;-58
2023/03/31 01:52:59;;;;;;;16.87;3.17;;;10.70;99.90;;;;;;5066286;28;20605;-57
2023/03/31 01:55:35;;;;;;;11.57;2.83;;;10.70;99.90;;;;;;5067553;28;20231;-57
2023/03/31 01:58:09;;;;;;;15.07;3.50;;;10.60;99.90;;;;;;5089549;28;20793;-58
2023/03/31 02:00:40;;;;;;;14.80;3.70;;;10.60;99.90;;;;;;5089903;28;20216;-58
2023/03/31 02:03:15;;;;;;;21.10;3.47;;;10.60;99.90;;;;;;5091463;28;20215;-58
2023/03/31 02:05:48;;;;;;;13.27;3.23;;;10.60;99.90;;;;;;5087209;28;21399;-58
2023/03/31 02:08:22;;;;;;;14.97;3.20;;;10.60;99.90;;;;;;5082213;28;20303;-59
2023/03/31 02:10:53;;;;;;;15.00;3.50;;;10.60;99.90;;;;;;5087920;28;20223;-58
2023/03/31 02:13:23;;;;;;;13.03;3.17;;;10.60;99.90;;;;;;5091797;28;20184;-57
2023/03/31 02:15:56;;;;;;;15.67;3.63;;;10.60;99.90;;;;;;5099670;28;20215;-57
2023/03/31 02:18:29;;;;;;;13.00;3.73;;;10.60;99.90;;;;;;5090474;28;20227;-57
2023/03/31 02:21:02;;;;;;;18.07;3.80;;;10.60;99.90;;;;;;5090537;28;20210;-58
2023/03/31 02:23:32;;;;;;;17.83;3.90;;;10.60;99.90;;;;;;5094420;28;20230;-58
2023/03/31 02:26:05;;;;;;;14.23;3.53;;;10.50;99.90;;;;;;5093494;28;20269;-58
2023/03/31 02:28:34;;;;;;;15.57;3.50;;;10.50;99.90;;;;;;5088974;28;20187;-57
2023/03/31 02:31:21;;;;;;;16.33;3.60;;;10.50;99.90;;;;;;5091609;28;20203;-58
2023/03/31 02:33:49;;;;;;;13.47;3.33;;;10.50;99.90;;;;;;5092496;28;20258;-58
2023/03/31 02:36:20;;;;;;;16.53;3.10;;;10.40;99.90;;;;;;5080583;28;20289;-58
2023/03/31 02:38:53;;;;;;;12.83;3.27;;;10.40;99.90;;;;;;5070330;28;20224;-58
2023/03/31 02:41:23;;;;;;;9.93;2.77;;;10.40;99.90;;;;;;5065106;28;20269;-58
2023/03/31 02:43:51;;;;;;;15.20;3.60;;;10.40;99.90;;;;;;5063241;28;20280;-58
2023/03/31 02:46:22;;;;;;;14.40;3.10;;;10.40;99.90;;;;;;5068637;28;20196;-59
2023/03/31 02:48:53;;;;;;;13.00;3.37;;;10.30;99.90;;;;;;5067709;28;20700;-58
2023/03/31 02:51:47;;;;;;;13.83;3.20;;;10.30;99.90;;;;;;5069354;28;20230;-58
2023/03/31 02:54:37;;;;;;;11.23;2.93;;;10.20;99.90;;;;;;5074642;28;20720;-59
2023/03/31 02:57:27;;;;;;;14.93;3.10;;;10.20;99.90;;;;;;5067869;28;20220;-59
2023/03/31 03:00:08;;;;;;;9.97;2.90;;;10.20;99.90;;;;;;5069819;28;20661;-58
2023/03/31 03:02:49;;;;;;;12.70;2.97;;;10.20;99.90;;;;;;5066387;28;20311;-59
2023/03/31 03:05:28;;;;;;;11.00;3.00;;;10.20;99.90;;;;;;5072462;28;20729;-58
2023/03/31 03:08:06;;;;;;;12.27;3.23;;;10.20;99.90;;;;;;5064165;28;20243;-58
2023/03/31 03:10:42;;;;;;;11.53;3.50;;;10.10;99.90;;;;;;5067590;28;20196;-58
2023/03/31 03:13:18;;;;;;;14.73;3.17;;;10.20;99.90;;;;;;5067039;28;20235;-59
2023/03/31 03:15:49;;;;;;;10.83;2.73;;;10.20;99.90;;;;;;5064301;28;20232;-58
2023/03/31 03:18:18;;;;;;;8.20;2.20;;;10.10;99.90;;;;;;5065117;28;20219;-59
2023/03/31 03:20:48;;;;;;;3.13;2.00;;;10.00;99.90;;;;;;5077257;28;20297;-58
2023/03/31 03:23:16;;;;;;;10.33;2.30;;;10.00;99.90;;;;;;5063078;28;20224;-58
2023/03/31 03:25:45;;;;;;;8.47;2.20;;;9.90;99.90;;;;;;5066416;28;20195;-58
2023/03/31 03:28:16;;;;;;;10.87;1.80;;;9.80;99.90;;;;;;5067531;28;20197;-58
2023/03/31 03:30:44;;;;;;;7.10;1.93;;;9.70;99.90;;;;;;5070075;28;20302;-58
2023/03/31 03:33:15;;;;;;;4.57;2.10;;;9.70;99.90;;;;;;5058959;28;20247;-58
2023/03/31 03:35:44;;;;;;;3.70;1.77;;;9.70;99.90;;;;;;5064679;28;20211;-58
2023/03/31 03:38:12;;;;;;;4.93;1.70;;;9.60;99.90;;;;;;5060820;28;20299;-58
2023/03/31 03:40:41;;;;;;;5.10;1.80;;;9.60;99.90;;;;;;5073867;28;20193;-58
2023/03/31 03:43:09;;;;;;;5.00;1.73;;;9.60;99.90;;;;;;5091762;28;20257;-58
2023/03/31 03:45:38;;;;;;;2.13;1.53;;;9.60;99.90;;;;;;5100814;28;20243;-57
2023/03/31 03:48:07;;;;;;;3.10;1.73;;;9.60;99.90;;;;;;5092217;28;20219;-57
2023/03/31 03:50:37;;;;;;;1.90;1.40;;;9.60;99.90;;;;;;5123528;27;20218;-58
2023/03/31 03:53:05;;;;;;;1.80;1.50;;;9.60;99.90;;;;;;5091619;28;20298;-57
2023/03/31 03:55:34;;;;;;;4.07;1.63;;;9.70;99.90;;;;;;5092023;28;20219;-57
2023/03/31 03:58:02;;;;;;;4.37;1.60;;;9.70;99.90;;;;;;5068049;28;20216;-57
2023/03/31 04:00:30;;;;;;;3.43;1.57;;;9.70;99.90;;;;;;5070789;28;20578;-57
2023/03/31 04:03:00;;;;;;;2.97;1.70;;;9.70;99.90;;;;;;5081905;28;20249;-58
2023/03/31 04:05:28;;;;;;;3.97;1.70;;;9.60;99.90;;;;;;5084385;28;20227;-58
2023/03/31 04:07:57;;;;;;;1.70;1.60;;;9.60;99.90;;;;;;5087188;28;20760;-57
2023/03/31 04:10:25;;;;;;;5.20;1.73;;;9.60;99.90;;;;;;5071630;28;20192;-58
2023/03/31 04:12:53;;;;;;;5.97;1.60;;;9.60;99.90;;;;;;5058167;28;20568;-58
2023/03/31 04:15:22;;;;;;;3.20;1.60;;;9.60;99.90;;;;;;5075825;28;20220;-57
2023/03/31 04:17:53;;;;;;;6.10;1.70;;;9.60;99.90;;;;;;5077621;28;20573;-58
2023/03/31 04:20:26;;;;;;;2.13;1.67;;;9.60;99.90;;;;;;5085124;28;20235;-58
2023/03/31 04:22:55;;;;;;;1.70;1.60;;;9.50;99.90;;;;;;5093761;28;20229;-57
2023/03/31 04:25:23;;;;;;;3.67;1.80;;;9.50;99.90;;;;;;5085909;28;20658;-58
2023/03/31 04:27:54;;;;;;;6.07;2.13;;;9.40;99.90;;;;;;5086506;28;20285;-58
2023/03/31 04:30:23;;;;;;;7.17;1.87;;;9.40;99.90;;;;;;5092622;28;20211;-58
2023/03/31 04:32:54;;;;;;;2.87;1.87;;;9.40;99.90;;;;;;5092617;28;20708;-58
2023/03/31 04:35:25;;;;;;;5.63;2.03;;;9.40;99.90;;;;;;5091013;28;20705;-58
2023/03/31 04:37:57;;;;;;;8.67;2.53;;;9.40;99.90;;;;;;5088017;28;20306;-58
2023/03/31 04:40:26;;;;;;;6.23;2.07;;;9.40;99.90;;;;;;5090839;28;20256;-58
2023/03/31 04:42:55;;;;;;;10.73;2.40;;;9.40;99.90;;;;;;5086232;28;20261;-58
2023/03/31 04:45:23;;;;;;;6.67;2.20;;;9.50;99.90;;;;;;5067839;28;20329;-58
2023/03/31 04:47:51;;;;;;;11.10;2.70;;;9.50;99.90;;;;;;5066764;28;20257;-58
2023/03/31 04:50:19;;;;;;;7.07;2.50;;;9.60;99.90;;;;;;5076424;28;20885;-58
2023/03/31 04:52:49;;;;;;;6.87;2.37;;;9.60;99.90;;;;;;5095677;28;20187;-57
2023/03/31 04:55:17;;;;;;;12.10;2.80;;;9.60;99.90;;;;;;5091584;28;20238;-58
2023/03/31 04:57:46;;;;;;;11.37;3.23;;;9.70;99.90;;;;;;5090860;28;20239;-58
2023/03/31 05:00:15;;;;;;;6.30;2.67;;;9.70;99.90;;;;;;5085825;28;20269;-58
2023/03/31 05:02:43;;;;;;;13.27;3.10;;;9.80;99.90;;;;;;5086864;28;20247;-58
2023/03/31 05:05:12;;;;;;;12.20;2.83;;;9.80;99.90;;;;;;5088254;27;20219;-57
2023/03/31 05:07:40;;;;;;;14.77;3.37;;;9.90;99.90;;;;;;5088404;28;20210;-58
2023/03/31 05:10:10;;;;;;;11.07;3.57;;;10.00;99.90;;;;;;5089130;28;20630;-57
2023/03/31 05:12:39;;;;;;;19.17;3.50;;;10.00;99.90;;;;;;5083006;28;20223;-58
2023/03/31 05:15:08;;;;;;;14.37;3.77;;;10.10;99.90;;;;;;5084654;28;20619;-59
2023/03/31 05:17:37;;;;;;;15.33;3.53;;;10.10;99.90;;;;;;5083132;28;20220;-58
2023/03/31 05:20:07;;;;;;;13.77;3.80;;;10.20;99.90;;;;;;5105281;28;20239;-58
2023/03/31 05:22:36;;;;;;;19.97;3.80;;;10.20;99.90;;;;;;5088598;28;20183;-58
2023/03/31 05:25:07;;;;;;;13.97;4.00;;;10.30;99.90;;;;;;5091969;28;20569;-57
2023/03/31 05:27:37;;;;;;;21.63;4.00;;;10.30;99.90;;;;;;5083413;28;20211;-58
2023/03/31 05:30:07;;;;;;;14.87;4.00;;;10.30;99.90;;;;;;5089504;28;20559;-58
2023/03/31 05:32:35;;;;;;;15.67;3.70;;;10.30;99.90;;;;;;5096677;27;20223;-57
2023/03/31 05:35:03;;;;;;;14.10;3.60;;;10.30;99.90;;;;;;5084677;28;20606;-57
2023/03/31 05:37:32;;;;;;;17.27;3.90;;;10.30;99.90;;;;;;5086467;28;20666;-56
2023/03/31 05:40:00;;;;;;;15.77;3.97;;;10.30;99.90;;;;;;5087944;28;20188;-57
2023/03/31 05:42:28;;;;;;;19.10;3.60;;;10.30;99.90;;;;;;5075197;28;20231;-58
2023/03/31 05:44:58;;;;;;;21.27;5.00;;;10.40;99.90;;;;;;5075174;28;20258;-58
2023/03/31 05:47:26;;;;;;;24.27;4.07;;;10.40;99.90;;;;;;5066637;28;20292;-57
2023/03/31 05:49:54;;;;;;;20.13;4.43;;;10.40;99.90;;;;;;5066134;28;20244;-58
2023/03/31 05:52:22;;;;;;;16.90;3.50;;;10.50;99.90;;;;;;5062621;28;20651;-57
2023/03/31 05:54:51;;;;;;;20.27;4.00;;;10.50;99.90;;;;;;5072496;28;20254;-57
2023/03/31 05:57:19;;;;;;;16.23;3.87;;;10.50;99.90;;;;;;5078662;28;20224;-58
2023/03/31 05:59:47;;;;;;;23.03;3.80;;;10.50;99.90;;;;;;5066404;28;20534;-57
2023/03/31 06:02:17;;;;;;;19.33;4.13;;;10.50;99.90;;;;;;5066365;28;20243;-57
2023/03/31 06:04:45;;;;;;;14.47;4.07;;;10.50;99.90;;;;;;5062890;28;20265;-58
2023/03/31 06:07:16;;;;;;;15.87;4.03;;;10.60;99.90;;;;;;5058501;28;20197;-57
2023/03/31 06:09:45;;;;;;;16.80;4.23;;;10.60;99.90;;;;;;5063968;28;20234;-58
2023/03/31 06:12:14;;;;;;;22.83;4.53;;;10.60;99.90;;;;;;5066343;28;20220;-57
2023/03/31 06:14:43;;;;;;;17.23;4.17;;;10.50;99.90;;;;;;5069660;28;20215;-57
2023/03/31 06:17:11;;;;;;;20.40;4.73;;;10.60;99.90;;;;;;5065853;28;20243;-57
2023/03/31 06:19:40;;;;;;;10.13;3.20;;;10.60;99.90;;;;;;5067978;28;20223;-57
2023/03/31 06:22:08;;;;;;;21.33;4.17;;;10.60;99.90;;;;;;5063814;28;20605;-58
2023/03/31 06:24:42;;;;;;;17.73;4.43;;;10.60;99.90;;;;;;5065237;28;20270;-57
2023/03/31 06:27:11;;;;;;;18.37;3.20;;;10.70;99.90;;;;;;5069091;28;20223;-57
2023/03/31 06:29:39;;;;;;;16.23;4.37;;;10.70;99.90;;;;;;5071438;28;20220;-57
2023/03/31 06:32:07;;;;;;;19.90;3.97;;;10.70;99.90;;;;;;5068333;28;20288;-57
2023/03/31 06:34:35;;;;;;;17.77;3.90;;;10.70;99.90;;;;;;5071415;28;20203;-57
2023/03/31 06:37:05;;;;;;;15.07;4.20;;;10.80;99.90;;;;;;5068218;28;20627;-57
2023/03/31 06:39:33;;;;;;;14.63;4.00;;;10.80;99.90;;;;;;5064761;28;20224;-57
2023/03/31 06:42:01;;;;;;;16.90;4.10;;;10.80;99.90;;;;;;5065782;28;20274;-56
2023/03/31 06:44:30;;;;;;;17.93;4.40;;;10.80;99.90;;;;;;5069039;28;20220;-57
2023/03/31 06:46:58;;;;;;;18.17;4.07;;;10.80;99.90;;;;;;5072416;28;20292;-57
2023/03/31 06:49:26;;;;;;;24.53;4.00;;;10.90;99.90;;;;;;5069623;28;20552;-57
2023/03/31 06:51:54;;;;;;;18.70;4.30;;;10.90;99.90;;;;;;5070729;28;20605;-57
2023/03/31 06:54:24;;;;;;;23.93;4.70;;;10.90;99.90;;;;;;5065173;28;20208;-57
2023/03/31 06:56:52;;;;;;;22.27;5.27;;;11.00;99.90;;;;;;5080290;28;20219;-57
2023/03/31 06:59:20;;;;;;;24.17;4.83;;;10.90;99.90;;;;;;5087199;28;20235;-57
2023/03/31 07:01:49;;;;;;;20.97;7.00;;;11.00;99.90;;;;;;5096518;28;20296;-57
2023/03/31 07:04:17;;;;;;;20.70;6.50;;;11.00;99.90;;;;;;5091568;28;20196;-58
2023/03/31 07:06:46;;;;;;;29.77;7.70;;;11.00;99.90;;;;;;5084811;28;20637;-57
2023/03/31 07:09:14;;;;;;;22.47;6.87;;;11.00;99.90;;;;;;5085662;28;20216;-57
2023/03/31 07:11:44;;;;;;;29.27;6.00;;;11.00;99.90;;;;;;5086244;28;20566;-57
2023/03/31 07:14:12;;;;;;;23.80;5.17;;;11.00;99.90;;;;;;5088425;28;20261;-57
2023/03/31 07:16:40;;;;;;;23.43;5.03;;;11.00;99.90;;;;;;5085739;28;20187;-57
2023/03/31 07:19:09;;;;;;;26.07;5.10;;;11.00;99.90;;;;;;5094337;28;20231;-57
2023/03/31 07:21:38;;;;;;;29.73;5.00;;;11.10;99.90;;;;;;5094104;28;20223;-58
2023/03/31 07:24:06;;;;;;;22.07;5.30;;;11.10;99.90;;;;;;5091492;28;20227;-58
2023/03/31 07:26:34;;;;;;;18.73;4.17;;;11.10;99.90;;;;;;5093987;28;20231;-57
2023/03/31 07:29:04;;;;;;;22.97;4.67;;;11.20;99.90;;;;;;5091162;28;20220;-57
2023/03/31 07:31:32;;;;;;;20.47;4.60;;;11.30;99.90;;;;;;5085375;28;20187;-57
2023/03/31 07:34:02;;;;;;;15.63;4.80;;;11.20;99.90;;;;;;5090243;28;20261;-58
2023/03/31 07:36:31;;;;;;;19.57;4.00;;;11.30;99.90;;;;;;5094517;28;20772;-58
2023/03/31 07:38:59;;;;;;;27.87;4.80;;;11.20;99.90;;;;;;5091167;28;20764;-56
2023/03/31 07:41:27;;;;;;;20.63;4.73;;;11.20;99.90;;;;;;5086022;28;20284;-57
2023/03/31 07:43:56;;;;;;;17.93;4.53;;;11.20;99.90;;;;;;5090628;28;20713;-57
2023/03/31 07:46:27;;;;;;;20.43;4.53;;;11.30;99.90;;;;;;5093098;28;20221;-57
2023/03/31 07:48:57;;;;;;;27.13;5.30;;;11.30;99.90;;;;;;5090637;28;20253;-58
2023/03/31 07:51:26;;;;;;;21.83;4.47;;;11.30;99.90;;;;;;5093706;28;20583;-58
2023/03/31 07:53:55;;;;;;;20.13;4.50;;;11.30;99.90;;;;;;5093353;28;20223;-58
2023/03/31 07:56:24;;;;;;;16.70;4.03;;;11.20;99.90;;;;;;5092855;28;20230;-58
2023/03/31 07:58:53;;;;;;;19.97;4.30;;;11.10;99.90;;;;;;5087512;28;20635;-58
2023/03/31 08:01:28;;;;;;;26.03;4.63;;;11.10;99.90;;;;;;5089878;28;20200;-58
2023/03/31 08:03:57;;;;;;;27.53;4.87;;;11.00;99.90;;;;;;5083504;28;20745;-57
2023/03/31 08:06:27;;;;;;;27.83;5.00;;;11.00;99.90;;;;;;5087843;28;20219;-57
2023/03/31 08:08:56;;;;;;;23.80;4.27;;;11.00;99.90;;;;;;5089093;28;20227;-57
2023/03/31 08:11:26;;;;;;;22.00;5.23;;;11.00;99.90;;;;;;5090366;28;20230;-58
2023/03/31 08:13:55;;;;;;;18.77;4.10;;;11.00;99.90;;;;;;5086882;28;20222;-57
2023/03/31 08:16:23;;;;;;;24.90;4.13;;;11.00;99.90;;;;;;5075828;28;20187;-58
2023/03/31 08:18:53;;;;;;;24.73;4.60;;;11.10;99.90;;;;;;5087079;28;20314;-57
2023/03/31 08:21:21;;;;;;;15.33;3.43;;;11.20;99.90;;;;;;5088966;28;20725;-57
2023/03/31 08:23:54;;;;;;;22.83;4.50;;;11.30;99.90;;;;;;5088985;28;20222;-58
2023/03/31 08:26:24;;;;;;;22.23;4.33;;;11.40;99.90;;;;;;5087541;28;20284;-57
2023/03/31 08:28:53;;;;;;;25.50;4.00;;;11.50;99.90;;;;;;5086746;28;20231;-57
2023/03/31 08:31:22;;;;;;;22.40;4.23;;;11.50;99.90;;;;;;5091790;28;20187;-57
2023/03/31 08:33:56;;;;;;;16.47;4.13;;;11.50;99.90;;;;;;5091995;28;20586;-57
2023/03/31 08:36:25;;;;;;;18.13;3.97;;;11.40;99.90;;;;;;5085640;28;20219;-56
2023/03/31 08:38:53;;;;;;;20.90;3.77;;;11.40;99.90;;;;;;5089099;28;20526;-57
2023/03/31 08:41:36;;;;;;;20.40;3.97;;;11.50;99.90;;;;;;5085667;28;20268;-57
2023/03/31 08:44:11;;;;;;;16.67;3.43;;;11.60;99.90;;;;;;5089309;28;20226;-57
2023/03/31 08:46:41;;;;;;;23.60;4.40;;;11.60;99.90;;;;;;5069307;28;20227;-57
2023/03/31 08:49:15;;;;;;;13.83;3.43;;;11.70;99.90;;;;;;5091769;28;20199;-57
2023/03/31 08:51:49;;;;;;;21.60;4.00;;;11.80;99.90;;;;;;5084400;28;20226;-57
2023/03/31 08:54:24;;;;;;;18.53;4.17;;;11.80;99.90;;;;;;5085508;28;20310;-57
2023/03/31 08:56:53;;;;;;;22.07;3.90;;;11.90;99.90;;;;;;5086026;28;20219;-58
2023/03/31 08:59:27;;;;;;;24.13;4.13;;;11.90;99.90;;;;;;5089886;28;20208;-57
2023/03/31 09:02:02;;;;;;;21.00;3.47;;;12.00;99.90;;;;;;5088120;28;20276;-57
2023/03/31 09:04:50;;;;;;;23.60;3.80;;;11.90;99.90;;;;;;5092769;28;20187;-57
2023/03/31 09:07:28;;;;;;;20.57;3.90;;;11.90;99.90;;;;;;5088162;28;20211;-57
2023/03/31 09:10:07;;;;;;;25.83;4.00;;;11.90;99.90;;;;;;5086272;28;20214;-58
2023/03/31 09:12:46;;;;;;;17.17;3.80;;;12.00;99.90;;;;;;5088577;28;20222;-57
2023/03/31 09:15:22;;;;;;;25.20;4.47;;;12.10;99.90;;;;;;5093615;28;20222;-58
2023/03/31 09:17:54;;;;;;;17.27;4.10;;;12.10;99.90;;;;;;5097602;28;20225;-57
2023/03/31 09:20:31;;;;;;;28.87;5.17;;;12.20;99.90;;;;;;5090274;28;20219;-57
2023/03/31 09:23:05;;;;;;;27.70;5.07;;;12.20;99.90;;;;;;5091399;28;20210;-57
2023/03/31 09:25:38;;;;;;;24.50;4.33;;;12.10;99.90;;;;;;5081072;28;20187;-58
2023/03/31 09:28:13;;;;;;;21.70;4.27;;;12.20;99.90;;;;;;5089740;28;20195;-58
2023/03/31 09:30:42;;;;;;;23.40;4.57;;;12.20;99.90;;;;;;5090592;28;20211;-57
2023/03/31 09:33:15;;;;;;;24.97;5.07;;;12.30;99.90;;;;;;5078923;28;20261;-58
2023/03/31 09:35:45;;;;;;;19.93;4.77;;;12.40;99.90;;;;;;5093124;28;20238;-58
2023/03/31 09:38:15;;;;;;;20.43;4.10;;;12.50;99.90;;;;;;5089218;28;20342;-57
2023/03/31 09:40:44;;;;;;;18.40;4.43;;;12.50;99.90;;;;;;5082215;28;20227;-57
2023/03/31 09:43:21;;;;;;;25.30;4.93;;;12.40;99.90;;;;;;5089029;28;20231;-57
2023/03/31 09:45:50;;;;;;;16.90;4.57;;;12.50;99.90;;;;;;5084980;28;20219;-57
2023/03/31 09:48:39;;;;;;;21.63;4.27;;;12.40;99.90;;;;;;5089844;28;20218;-57
2023/03/31 09:51:18;;;;;;;26.37;4.43;;;12.40;99.90;;;;;;5090180;28;20265;-58
2023/03/31 09:53:51;;;;;;;20.20;4.37;;;12.40;99.90;;;;;;5086569;28;20234;-57
2023/03/31 09:56:34;;;;;;;18.17;4.50;;;12.40;99.90;;;;;;5089108;28;20223;-56
2023/03/31 09:59:04;;;;;;;24.87;4.57;;;12.40;99.90;;;;;;5091612;28;20721;-57
2023/03/31 10:01:32;;;;;;;25.20;4.33;;;12.30;99.90;;;;;;5086808;28;20241;-56
2023/03/31 10:04:04;;;;;;;28.13;5.10;;;12.40;99.90;;;;;;5090191;28;20627;-56
2023/03/31 10:06:40;;;;;;;21.07;4.57;;;12.50;99.90;;;;;;5088246;28;20272;-57
2023/03/31 10:09:11;;;;;;;21.80;4.23;;;12.70;99.90;;;;;;5091020;28;20242;-57
2023/03/31 10:11:40;;;;;;;22.63;3.90;;;12.80;99.90;;;;;;5088626;28;20219;-57
2023/03/31 10:14:14;;;;;;;24.97;4.47;;;12.90;99.90;;;;;;5088533;28;20215;-56
2023/03/31 10:16:48;;;;;;;26.13;4.57;;;12.90;99.90;;;;;;5094124;28;20210;-57
2023/03/31 10:19:21;;;;;;;26.00;4.00;;;12.90;99.90;;;;;;5086423;28;20279;-57
2023/03/31 10:21:56;;;;;;;23.20;4.40;;;12.90;99.90;;;;;;5089586;28;20940;-57
2023/03/31 10:24:37;;;;;;;17.30;5.03;;;12.90;99.90;;;;;;5087691;28;20226;-57
2023/03/31 10:27:13;;;;;;;22.77;4.07;;;12.90;99.90;;;;;;5085640;28;20249;-57
2023/03/31 10:29:47;;;;;;;25.20;3.97;;;13.00;99.90;;;;;;5088678;28;20211;-57
2023/03/31 10:32:22;;;;;;;18.43;4.07;;;13.00;99.90;;;;;;5092295;28;20253;-57
2023/03/31 10:34:50;;;;;;;14.30;4.03;;;13.00;99.90;;;;;;5091387;28;20195;-57
2023/03/31 10:37:24;;;;;;;18.60;4.00;;;13.00;99.90;;;;;;5087229;28;20179;-57
2023/03/31 10:39:58;;;;;;;21.00;3.53;;;13.00;99.90;;;;;;5086226;28;20615;-57
2023/03/31 10:42:28;;;;;;;18.60;3.70;;;13.00;99.90;;;;;;5081705;28;20628;-57
2023/03/31 10:45:12;;;;;;;14.13;3.37;;;13.00;99.90;;;;;;5089215;28;20216;-57
2023/03/31 10:47:58;;;;;;;15.43;4.23;;;12.90;99.90;;;;;;5081229;28;20211;-57
2023/03/31 10:50:29;;;;;;;11.47;3.00;;;12.90;99.90;;;;;;5085729;28;20216;-57
2023/03/31 10:53:05;;;;;;;22.13;3.50;;;12.80;99.90;;;;;;5077311;28;20272;-57
2023/03/31 10:55:39;;;;;;;20.03;4.23;;;12.70;99.90;;;;;;5082342;28;20219;-57
2023/03/31 10:58:20;;;;;;;19.43;3.50;;;12.60;99.90;;;;;;5090812;28;20205;-57
2023/03/31 11:01:01;;;;;;;17.73;3.47;;;12.50;99.90;;;;;;5085544;28;20701;-57
2023/03/31 11:03:55;;;;;;;16.67;4.03;;;12.50;99.90;;;;;;5084132;28;20543;-57
2023/03/31 11:06:30;;;;;;;22.47;3.57;;;12.50;99.90;;;;;;5086728;28;20238;-57
2023/03/31 11:09:16;;;;;;;14.37;3.77;;;12.70;99.90;;;;;;5083096;28;20272;-58
2023/03/31 11:11:58;;;;;;;15.10;3.40;;;12.70;99.90;;;;;;5073737;28;20219;-57
2023/03/31 11:14:36;;;;;;;13.37;3.40;;;12.70;99.90;;;;;;5081070;28;20231;-57
2023/03/31 11:17:12;;;;;;;14.70;3.63;;;12.60;99.90;;;;;;5091005;28;20218;-58
2023/03/31 11:19:53;;;;;;;12.73;3.40;;;12.60;99.90;;;;;;5084803;28;20223;-57
2023/03/31 11:22:29;;;;;;;11.93;3.20;;;12.50;99.90;;;;;;5088748;28;20188;-57
2023/03/31 11:25:34;;;;;;;14.23;3.50;;;12.60;99.90;;;;;;5085154;28;20223;-57
2023/03/31 11:28:26;;;;;;;18.53;3.63;;;12.60;99.90;;;;;;4999960;28;20226;-57
2023/03/31 11:31:02;;;;;;;9.73;3.10;;;12.60;99.90;;;;;;5083207;28;20235;-57
2023/03/31 11:34:06;;;;;;;18.20;3.37;;;12.60;99.90;;;;;;5088420;28;20211;-57
2023/03/31 11:36:51;;;;;;;17.30;3.20;;;12.70;99.90;;;;;;5021322;28;20224;-57
2023/03/31 11:39:31;;;;;;;16.17;3.60;;;12.60;99.90;;;;;;5059514;28;21139;-57
2023/03/31 11:42:05;;;;;;;8.40;2.73;;;12.50;99.90;;;;;;5087804;28;20274;-57
2023/03/31 11:44:40;;;;;;;14.20;3.33;;;12.40;99.90;;;;;;5088572;28;20604;-58
2023/03/31 11:47:12;;;;;;;10.80;2.63;;;12.30;99.90;;;;;;5085522;28;20225;-58
2023/03/31 11:49:45;;;;;;;10.17;3.13;;;12.20;99.90;;;;;;5079243;28;20222;-57
2023/03/31 11:52:17;;;;;;;15.50;2.90;;;12.20;99.90;;;;;;5090041;28;20192;-57
2023/03/31 11:54:53;;;;;;;12.73;2.73;;;12.10;99.90;;;;;;5087755;28;20219;-57
2023/03/31 11:57:29;;;;;;;7.00;2.83;;;12.00;99.90;;;;;;5092859;28;20569;-58
2023/03/31 12:00:05;;;;;;;15.33;2.80;;;11.80;99.90;;;;;;5092655;28;20219;-57
2023/03/31 12:02:43;;;;;;;14.60;2.90;;;11.60;99.90;;;;;;5095914;28;20248;-58
2023/03/31 12:05:15;;;;;;;7.20;2.37;;;11.60;99.90;;;;;;5090611;28;20219;-58
2023/03/31 12:07:49;;;;;;;9.90;2.20;;;11.60;99.90;;;;;;5079108;28;20204;-58
2023/03/31 12:10:21;;;;;;;8.80;2.80;;;11.60;99.90;;;;;;5085177;28;20198;-58
2023/03/31 12:12:56;;;;;;;5.83;2.07;;;11.60;99.90;;;;;;5087980;28;20219;-57
2023/03/31 12:15:27;;;;;;;5.00;2.27;;;11.80;99.90;;;;;;5090286;28;20219;-58
2023/03/31 12:18:00;;;;;;;7.20;2.30;;;11.80;99.90;;;;;;5091334;27;20302;-58
2023/03/31 12:20:36;;;;;;;3.73;1.70;;;11.90;99.90;;;;;;5084087;28;20545;-58
2023/03/31 12:23:11;;;;;;;2.73;1.63;;;11.90;99.90;;;;;;5086565;28;20219;-58
2023/03/31 12:25:48;;;;;;;3.77;1.90;;;11.90;99.90;;;;;;5087619;28;20206;-57
2023/03/31 12:28:19;;;;;;;6.17;2.10;;;11.90;99.90;;;;;;5091614;28;20211;-57
2023/03/31 12:30:48;;;;;;;7.13;2.20;;;11.80;99.90;;;;;;5085075;28;20211;-57
2023/03/31 12:33:23;;;;;;;8.10;2.30;;;11.80;99.90;;;;;;5086480;28;20338;-57
2023/03/31 12:36:07;;;;;;;10.97;2.67;;;11.70;99.90;;;;;;5090370;28;20260;-58
2023/03/31 12:38:50;;;;;;;9.47;2.60;;;11.70;99.90;;;;;;5086806;28;20208;-58
2023/03/31 12:41:25;;;;;;;9.80;2.20;;;11.70;99.90;;;;;;5090770;28;20261;-58
2023/03/31 12:44:10;;;;;;;5.67;2.30;;;11.80;99.90;;;;;;5094055;28;20261;-58
2023/03/31 12:47:32;;;;;;;8.20;2.63;;;11.80;99.90;;;;;;5087883;28;20208;-58
2023/03/31 12:50:16;;;;;;;6.00;2.13;;;11.80;99.90;;;;;;5005613;28;20233;-57
2023/03/31 12:52:54;;;;;;;5.00;2.00;;;11.80;99.90;;;;;;5008027;28;20193;-57
2023/03/31 12:55:37;;;;;;;7.63;2.00;;;11.70;99.90;;;;;;5061381;28;20229;-57
2023/03/31 12:58:41;;;;;;;6.53;2.10;;;11.70;99.90;;;;;;5087559;28;20211;-57
2023/03/31 13:01:13;;;;;;;6.37;2.10;;;11.80;99.90;;;;;;5089912;28;20214;-57
2023/03/31 13:03:54;;;;;;;3.93;1.70;;;11.90;99.90;;;;;;5093579;28;20214;-57
2023/03/31 13:06:53;;;;;;;2.43;1.63;;;12.00;99.90;;;;;;5087355;28;20226;-57
2023/03/31 13:09:56;;;;;;;2.63;1.50;;;12.20;99.90;;;;;;4984009;28;20752;-58
2023/03/31 13:12:30;;;;;;;3.97;1.40;;;12.30;99.90;;;;;;5090768;28;20715;-58